sensor_id;sensor_type;location;lat;lon;timestamp;pressure;altitude;pressure_sealevel;temperature;humidity
74075;BME280;62428;51.412;5.432;2023-10-13T00:01:54;101092.50;;;16.53;100.00
74075;BME280;62428;51.412;5.432;2023-10-13T00:04:20;101093.66;;;16.52;100.00
74075;BME280;62428;51.412;5.432;2023-10-13T00:06:50;101090.16;;;16.52;100.00
74075;BME280;62428;51.412;5.432;2023-10-13T00:09:16;101094.75;;;16.51;100.00
74075;BME280;62428;51.412;5.432;2023-10-13T00:11:42;101085.84;;;16.51;100.00
74075;BME280;62428;51.412;5.432;2023-10-13T00:14:14;101082.03;;;16.52;100.00
74075;BME280;62428;51.412;5.432;2023-10-13T00:16:43;101075.78;;;16.51;100.00
74075;BME280;62428;51.412;5.432;2023-10-13T00:19:28;101075.00;;;16.51;100.00
74075;BME280;62428;51.412;5.432;2023-10-13T00:21:53;101077.38;;;16.52;100.00
74075;BME280;62428;51.412;5.432;2023-10-13T00:24:21;101072.28;;;16.51;100.00
74075;BME280;62428;51.412;5.432;2023-10-13T00:26:48;101070.34;;;16.51;100.00
74075;BME280;62428;51.412;5.432;2023-10-13T00:29:19;101064.16;;;16.51;100.00
74075;BME280;62428;51.412;5.432;2023-10-13T00:31:54;101067.66;;;16.51;100.00
74075;BME280;62428;51.412;5.432;2023-10-13T00:34:19;101063.03;;;16.52;100.00
74075;BME280;62428;51.412;5.432;2023-10-13T00:36:50;101056.78;;;16.51;100.00
74075;BME280;62428;51.412;5.432;2023-10-13T00:39:36;101046.75;;;16.52;100.00
74075;BME280;62428;51.412;5.432;2023-10-13T00:42:03;101059.50;;;16.51;100.00
74075;BME280;62428;51.412;5.432;2023-10-13T00:44:33;101052.97;;;16.52;100.00
74075;BME280;62428;51.412;5.432;2023-10-13T00:47:09;101047.88;;;16.51;100.00
74075;BME280;62428;51.412;5.432;2023-10-13T00:49:46;101042.44;;;16.51;100.00
74075;BME280;62428;51.412;5.432;2023-10-13T00:52:12;101046.28;;;16.50;100.00
74075;BME280;62428;51.412;5.432;2023-10-13T00:54:41;101041.66;;;16.50;100.00
74075;BME280;62428;51.412;5.432;2023-10-13T00:57:12;101038.94;;;16.50;100.00
74075;BME280;62428;51.412;5.432;2023-10-13T00:59:54;101033.06;;;16.48;100.00
74075;BME280;62428;51.412;5.432;2023-10-13T01:02:20;101031.47;;;16.47;100.00
74075;BME280;62428;51.412;5.432;2023-10-13T01:05:04;101023.31;;;16.47;100.00
74075;BME280;62428;51.412;5.432;2023-10-13T01:07:30;101025.72;;;16.49;100.00
74075;BME280;62428;51.412;5.432;2023-10-13T01:09:55;101024.09;;;16.48;100.00
74075;BME280;62428;51.412;5.432;2023-10-13T01:12:21;101022.22;;;16.48;100.00
74075;BME280;62428;51.412;5.432;2023-10-13T01:14:50;101006.25;;;16.47;100.00
74075;BME280;62428;51.412;5.432;2023-10-13T01:17:15;101010.88;;;16.46;100.00
74075;BME280;62428;51.412;5.432;2023-10-13T01:19:41;101002.75;;;16.46;100.00
74075;BME280;62428;51.412;5.432;2023-10-13T01:22:11;101001.94;;;16.46;100.00
74075;BME280;62428;51.412;5.432;2023-10-13T01:24:36;100995.41;;;16.47;100.00
74075;BME280;62428;51.412;5.432;2023-10-13T01:27:06;100988.41;;;16.46;100.00
74075;BME280;62428;51.412;5.432;2023-10-13T01:29:46;100990.31;;;16.45;100.00
74075;BME280;62428;51.412;5.432;2023-10-13T01:32:18;100980.59;;;16.44;100.00
74075;BME280;62428;51.412;5.432;2023-10-13T01:34:43;100982.19;;;16.45;100.00
74075;BME280;62428;51.412;5.432;2023-10-13T01:37:12;100970.88;;;16.43;100.00
74075;BME280;62428;51.412;5.432;2023-10-13T01:39:38;100961.97;;;16.43;100.00
74075;BME280;62428;51.412;5.432;2023-10-13T01:42:03;100961.97;;;16.43;100.00
74075;BME280;62428;51.412;5.432;2023-10-13T01:44:30;100950.28;;;16.42;100.00
74075;BME280;62428;51.412;5.432;2023-10-13T01:46:58;100954.16;;;16.41;100.00
74075;BME280;62428;51.412;5.432;2023-10-13T01:49:25;100952.22;;;16.42;100.00
74075;BME280;62428;51.412;5.432;2023-10-13T01:51:50;100947.13;;;16.40;100.00
74075;BME280;62428;51.412;5.432;2023-10-13T01:54:16;100940.91;;;16.40;100.00
74075;BME280;62428;51.412;5.432;2023-10-13T01:56:41;100939.00;;;16.40;100.00
74075;BME280;62428;51.412;5.432;2023-10-13T01:59:13;100943.63;;;16.40;100.00
74075;BME280;62428;51.412;5.432;2023-10-13T02:01:39;100928.16;;;16.40;100.00
74075;BME280;62428;51.412;5.432;2023-10-13T02:04:08;100934.34;;;16.41;100.00
74075;BME280;62428;51.412;5.432;2023-10-13T02:06:36;100923.84;;;16.39;100.00
74075;BME280;62428;51.412;5.432;2023-10-13T02:09:07;100925.44;;;16.40;100.00
74075;BME280;62428;51.412;5.432;2023-10-13T02:11:43;100926.56;;;16.39;100.00
74075;BME280;62428;51.412;5.432;2023-10-13T02:14:11;100918.09;;;16.41;100.00
74075;BME280;62428;51.412;5.432;2023-10-13T02:16:38;100924.31;;;16.41;100.00
74075;BME280;62428;51.412;5.432;2023-10-13T02:19:03;100920.47;;;16.42;100.00
74075;BME280;62428;51.412;5.432;2023-10-13T02:21:34;100917.75;;;16.42;100.00
74075;BME280;62428;51.412;5.432;2023-10-13T02:24:06;100916.66;;;16.43;100.00
74075;BME280;62428;51.412;5.432;2023-10-13T02:26:37;100909.31;;;16.44;100.00
74075;BME280;62428;51.412;5.432;2023-10-13T02:29:04;100906.59;;;16.44;100.00
74075;BME280;62428;51.412;5.432;2023-10-13T02:31:37;100901.16;;;16.44;100.00
74075;BME280;62428;51.412;5.432;2023-10-13T02:34:03;100889.22;;;16.45;100.00
74075;BME280;62428;51.412;5.432;2023-10-13T02:36:36;100895.75;;;16.44;100.00
74075;BME280;62428;51.412;5.432;2023-10-13T02:39:04;100905.47;;;16.45;100.00
74075;BME280;62428;51.412;5.432;2023-10-13T02:41:33;100890.00;;;16.45;100.00
74075;BME280;62428;51.412;5.432;2023-10-13T02:44:02;100878.38;;;16.45;100.00
74075;BME280;62428;51.412;5.432;2023-10-13T02:46:31;100874.50;;;16.46;100.00
74075;BME280;62428;51.412;5.432;2023-10-13T02:48:56;100870.69;;;16.47;100.00
74075;BME280;62428;51.412;5.432;2023-10-13T02:51:27;100859.84;;;16.47;100.00
74075;BME280;62428;51.412;5.432;2023-10-13T02:54:01;100865.59;;;16.45;100.00
74075;BME280;62428;51.412;5.432;2023-10-13T02:56:37;100847.06;;;16.47;100.00
74075;BME280;62428;51.412;5.432;2023-10-13T02:59:03;100837.34;;;16.46;100.00
74075;BME280;62428;51.412;5.432;2023-10-13T03:01:31;100838.16;;;16.47;100.00
74075;BME280;62428;51.412;5.432;2023-10-13T03:04:01;100821.88;;;16.47;100.00
74075;BME280;62428;51.412;5.432;2023-10-13T03:06:28;100823.44;;;16.48;100.00
74075;BME280;62428;51.412;5.432;2023-10-13T03:09:07;100818.03;;;16.48;100.00
74075;BME280;62428;51.412;5.432;2023-10-13T03:11:40;100813.41;;;16.48;100.00
74075;BME280;62428;51.412;5.432;2023-10-13T03:14:09;100816.13;;;16.48;100.00
74075;BME280;62428;51.412;5.432;2023-10-13T03:16:45;100805.28;;;16.48;100.00
74075;BME280;62428;51.412;5.432;2023-10-13T03:19:11;100806.84;;;16.49;100.00
74075;BME280;62428;51.412;5.432;2023-10-13T03:21:36;100804.94;;;16.50;100.00
74075;BME280;62428;51.412;5.432;2023-10-13T03:24:02;100798.41;;;16.51;100.00
74075;BME280;62428;51.412;5.432;2023-10-13T03:26:33;100789.47;;;16.50;100.00
74075;BME280;62428;51.412;5.432;2023-10-13T03:29:03;100783.72;;;16.52;100.00
74075;BME280;62428;51.412;5.432;2023-10-13T03:31:32;100788.78;;;16.53;100.00
74075;BME280;62428;51.412;5.432;2023-10-13T03:34:05;100779.22;;;16.56;100.00
74075;BME280;62428;51.412;5.432;2023-10-13T03:36:36;100768.81;;;16.58;100.00
74075;BME280;62428;51.412;5.432;2023-10-13T03:39:20;100772.31;;;16.59;100.00
74075;BME280;62428;51.412;5.432;2023-10-13T03:41:52;100766.22;;;16.62;100.00
74075;BME280;62428;51.412;5.432;2023-10-13T03:44:19;100755.38;;;16.62;100.00
74075;BME280;62428;51.412;5.432;2023-10-13T03:46:45;100744.53;;;16.62;100.00
74075;BME280;62428;51.412;5.432;2023-10-13T03:49:14;100742.28;;;16.64;100.00
74075;BME280;62428;51.412;5.432;2023-10-13T03:51:41;100742.28;;;16.64;100.00
74075;BME280;62428;51.412;5.432;2023-10-13T03:54:06;100732.22;;;16.64;100.00
74075;BME280;62428;51.412;5.432;2023-10-13T03:56:35;100730.31;;;16.65;100.00
74075;BME280;62428;51.412;5.432;2023-10-13T03:59:03;100725.69;;;16.65;100.00
74075;BME280;62428;51.412;5.432;2023-10-13T04:01:37;100721.03;;;16.66;100.00
74075;BME280;62428;51.412;5.432;2023-10-13T04:04:09;100715.63;;;16.66;100.00
74075;BME280;62428;51.412;5.432;2023-10-13T04:06:39;100710.97;;;16.66;100.00
74075;BME280;62428;51.412;5.432;2023-10-13T04:09:17;100702.50;;;16.68;100.00
74075;BME280;62428;51.412;5.432;2023-10-13T04:14:27;100698.22;;;16.67;100.00
74075;BME280;62428;51.412;5.432;2023-10-13T04:17:16;100697.09;;;16.68;100.00
74075;BME280;62428;51.412;5.432;2023-10-13T04:19:48;100693.25;;;16.69;100.00
74075;BME280;62428;51.412;5.432;2023-10-13T04:22:38;100698.34;;;16.70;100.00
74075;BME280;62428;51.412;5.432;2023-10-13T04:25:25;100701.50;;;16.72;100.00
74075;BME280;62428;51.412;5.432;2023-10-13T04:28:11;100688.72;;;16.73;100.00
74075;BME280;62428;51.412;5.432;2023-10-13T04:30:50;100685.69;;;16.75;100.00
74075;BME280;62428;51.412;5.432;2023-10-13T04:33:23;100694.28;;;16.77;100.00
74075;BME280;62428;51.412;5.432;2023-10-13T04:36:07;100688.06;;;16.76;100.00
74075;BME280;62428;51.412;5.432;2023-10-13T04:38:47;100705.13;;;16.77;100.00
74075;BME280;62428;51.412;5.432;2023-10-13T04:41:27;100702.09;;;16.78;100.00
74075;BME280;62428;51.412;5.432;2023-10-13T04:44:13;100705.56;;;16.79;100.00
74075;BME280;62428;51.412;5.432;2023-10-13T04:46:51;100706.03;;;16.81;100.00
74075;BME280;62428;51.412;5.432;2023-10-13T04:49:19;100697.09;;;16.80;100.00
74075;BME280;62428;51.412;5.432;2023-10-13T04:51:57;100689.75;;;16.81;100.00
74075;BME280;62428;51.412;5.432;2023-10-13T04:54:45;100699.50;;;16.82;100.00
74075;BME280;62428;51.412;5.432;2023-10-13T04:57:21;100693.75;;;16.83;100.00
74075;BME280;62428;51.412;5.432;2023-10-13T05:00:05;100699.97;;;16.84;100.00
74075;BME280;62428;51.412;5.432;2023-10-13T05:02:39;100700.41;;;16.86;100.00
74075;BME280;62428;51.412;5.432;2023-10-13T05:05:08;100688.78;;;16.85;100.00
74075;BME280;62428;51.412;5.432;2023-10-13T05:07:55;100681.09;;;16.87;100.00
74075;BME280;62428;51.412;5.432;2023-10-13T05:10:39;100660.19;;;16.88;100.00
74075;BME280;62428;51.412;5.432;2023-10-13T05:13:23;100667.53;;;16.87;100.00
74075;BME280;62428;51.412;5.432;2023-10-13T05:16:07;100647.44;;;16.88;100.00
74075;BME280;62428;51.412;5.432;2023-10-13T05:18:51;100625.34;;;16.90;100.00
74075;BME280;62428;51.412;5.432;2023-10-13T05:21:35;100629.22;;;16.89;100.00
74075;BME280;62428;51.412;5.432;2023-10-13T05:24:19;100623.00;;;16.88;100.00
74075;BME280;62428;51.412;5.432;2023-10-13T05:27:03;100614.06;;;16.88;100.00
74075;BME280;62428;51.412;5.432;2023-10-13T05:29:48;100613.28;;;16.87;100.00
74075;BME280;62428;51.412;5.432;2023-10-13T05:32:32;100606.72;;;16.88;100.00
74075;BME280;62428;51.412;5.432;2023-10-13T05:35:19;100611.34;;;16.88;100.00
74075;BME280;62428;51.412;5.432;2023-10-13T05:38:04;100602.88;;;16.89;100.00
74075;BME280;62428;51.412;5.432;2023-10-13T05:41:09;100597.44;;;16.89;100.00
74075;BME280;62428;51.412;5.432;2023-10-13T05:43:53;100594.72;;;16.89;100.00
74075;BME280;62428;51.412;5.432;2023-10-13T05:46:37;100593.94;;;16.89;100.00
74075;BME280;62428;51.412;5.432;2023-10-13T05:49:04;100587.38;;;16.90;100.00
74075;BME280;62428;51.412;5.432;2023-10-13T05:51:42;100595.50;;;16.90;100.00
74075;BME280;62428;51.412;5.432;2023-10-13T05:54:11;100586.91;;;16.88;100.00
74075;BME280;62428;51.412;5.432;2023-10-13T05:56:43;100581.50;;;16.88;100.00
74075;BME280;62428;51.412;5.432;2023-10-13T05:59:28;100591.56;;;16.87;100.00
74075;BME280;62428;51.412;5.432;2023-10-13T06:02:16;100589.19;;;16.86;100.00
74075;BME280;62428;51.412;5.432;2023-10-13T06:05:11;100587.63;;;16.85;100.00
74075;BME280;62428;51.412;5.432;2023-10-13T06:07:56;100595.75;;;16.85;100.00
74075;BME280;62428;51.412;5.432;2023-10-13T06:10:41;100591.13;;;16.85;100.00
74075;BME280;62428;51.412;5.432;2023-10-13T06:13:25;100583.31;;;16.84;100.00
74075;BME280;62428;51.412;5.432;2023-10-13T06:16:13;100584.09;;;16.84;100.00
74075;BME280;62428;51.412;5.432;2023-10-13T06:18:57;100583.31;;;16.84;100.00
74075;BME280;62428;51.412;5.432;2023-10-13T06:21:42;100576.28;;;16.83;100.00
74075;BME280;62428;51.412;5.432;2023-10-13T06:24:26;100573.59;;;16.83;100.00
74075;BME280;62428;51.412;5.432;2023-10-13T06:27:10;100575.19;;;16.84;100.00
74075;BME280;62428;51.412;5.432;2023-10-13T06:29:55;100569.75;;;16.84;100.00
74075;BME280;62428;51.412;5.432;2023-10-13T06:32:21;100571.34;;;16.85;100.00
74075;BME280;62428;51.412;5.432;2023-10-13T06:34:51;100572.91;;;16.86;100.00
74075;BME280;62428;51.412;5.432;2023-10-13T06:37:26;100565.22;;;16.88;100.00
74075;BME280;62428;51.412;5.432;2023-10-13T06:39:57;100550.88;;;16.87;100.00
74075;BME280;62428;51.412;5.432;2023-10-13T06:42:26;100545.88;;;16.89;100.00
74075;BME280;62428;51.412;5.432;2023-10-13T06:44:53;100541.25;;;16.90;100.00
74075;BME280;62428;51.412;5.432;2023-10-13T06:47:19;100545.88;;;16.89;100.00
74075;BME280;62428;51.412;5.432;2023-10-13T06:49:45;100538.19;;;16.91;100.00
74075;BME280;62428;51.412;5.432;2023-10-13T06:52:14;100544.44;;;16.92;100.00
74075;BME280;62428;51.412;5.432;2023-10-13T06:54:41;100539.78;;;16.93;100.00
74075;BME280;62428;51.412;5.432;2023-10-13T06:57:07;100544.06;;;16.94;100.00
74075;BME280;62428;51.412;5.432;2023-10-13T06:59:39;100547.22;;;16.96;100.00
74075;BME280;62428;51.412;5.432;2023-10-13T07:02:05;100544.50;;;16.96;100.00
74075;BME280;62428;51.412;5.432;2023-10-13T07:04:32;100538.75;;;16.97;100.00
74075;BME280;62428;51.412;5.432;2023-10-13T07:06:58;100537.97;;;16.97;100.00
74075;BME280;62428;51.412;5.432;2023-10-13T07:09:26;100532.22;;;16.98;100.00
74075;BME280;62428;51.412;5.432;2023-10-13T07:12:05;100517.84;;;16.98;100.00
74075;BME280;62428;51.412;5.432;2023-10-13T07:14:48;100521.34;;;16.98;100.00
74075;BME280;62428;51.412;5.432;2023-10-13T07:17:18;100514.44;;;17.01;100.00
74075;BME280;62428;51.412;5.432;2023-10-13T07:19:51;100512.16;;;17.03;100.00
74075;BME280;62428;51.412;5.432;2023-10-13T07:22:21;100507.22;;;17.05;100.00
74075;BME280;62428;51.412;5.432;2023-10-13T07:24:48;100515.00;;;17.06;100.00
74075;BME280;62428;51.412;5.432;2023-10-13T07:27:18;100510.03;;;17.08;100.00
74075;BME280;62428;51.412;5.432;2023-10-13T07:29:55;100516.34;;;17.13;100.00
74075;BME280;62428;51.412;5.432;2023-10-13T07:32:40;100500.50;;;17.15;100.00
74075;BME280;62428;51.412;5.432;2023-10-13T07:35:11;100506.38;;;17.17;100.00
74075;BME280;62428;51.412;5.432;2023-10-13T07:37:37;100512.25;;;17.19;100.00
74075;BME280;62428;51.412;5.432;2023-10-13T07:40:07;100505.34;;;17.21;100.00
74075;BME280;62428;51.412;5.432;2023-10-13T07:42:47;100512.00;;;17.24;100.00
74075;BME280;62428;51.412;5.432;2023-10-13T07:45:12;100507.47;;;17.28;100.00
74075;BME280;62428;51.412;5.432;2023-10-13T07:47:38;100501.34;;;17.31;100.00
74075;BME280;62428;51.412;5.432;2023-10-13T07:50:05;100500.31;;;17.36;100.00
74075;BME280;62428;51.412;5.432;2023-10-13T07:52:32;100493.84;;;17.40;100.00
74075;BME280;62428;51.412;5.432;2023-10-13T07:55:06;100474.59;;;17.45;100.00
74075;BME280;62428;51.412;5.432;2023-10-13T07:57:39;100481.69;;;17.50;100.00
74075;BME280;62428;51.412;5.432;2023-10-13T08:00:21;100472.84;;;17.53;100.00
74075;BME280;62428;51.412;5.432;2023-10-13T08:03:05;100486.09;;;17.55;100.00
74075;BME280;62428;51.412;5.432;2023-10-13T08:05:57;100483.38;;;17.55;100.00
74075;BME280;62428;51.412;5.432;2023-10-13T08:08:32;100475.22;;;17.55;100.00
74075;BME280;62428;51.412;5.432;2023-10-13T08:11:05;100479.50;;;17.56;100.00
74075;BME280;62428;51.412;5.432;2023-10-13T08:13:38;100488.47;;;17.56;100.00
74075;BME280;62428;51.412;5.432;2023-10-13T08:16:05;100484.69;;;17.61;100.00
74075;BME280;62428;51.412;5.432;2023-10-13T08:18:35;100470.00;;;17.62;100.00
74075;BME280;62428;51.412;5.432;2023-10-13T08:21:02;100474.72;;;17.65;100.00
74075;BME280;62428;51.412;5.432;2023-10-13T08:23:31;100457.38;;;17.70;100.00
74075;BME280;62428;51.412;5.432;2023-10-13T08:26:16;100462.91;;;17.73;100.00
74075;BME280;62428;51.412;5.432;2023-10-13T08:28:59;100473.19;;;17.80;100.00
74075;BME280;62428;51.412;5.432;2023-10-13T08:31:46;100463.31;;;17.88;100.00
74075;BME280;62428;51.412;5.432;2023-10-13T08:34:36;100466.53;;;17.93;100.00
74075;BME280;62428;51.412;5.432;2023-10-13T08:37:14;100460.41;;;17.96;100.00
74075;BME280;62428;51.412;5.432;2023-10-13T08:39:49;100444.63;;;18.02;100.00
74075;BME280;62428;51.412;5.432;2023-10-13T08:47:34;100449.88;;;18.11;100.00
74075;BME280;62428;51.412;5.432;2023-10-13T08:50:02;100445.31;;;18.15;100.00
74075;BME280;62428;51.412;5.432;2023-10-13T08:52:35;100453.13;;;18.16;100.00
74075;BME280;62428;51.412;5.432;2023-10-13T08:55:11;100447.31;;;18.18;100.00
74075;BME280;62428;51.412;5.432;2023-10-13T08:57:56;100446.97;;;18.19;100.00
74075;BME280;62428;51.412;5.432;2023-10-13T09:00:27;100440.41;;;18.20;100.00
74075;BME280;62428;51.412;5.432;2023-10-13T09:03:12;100420.59;;;18.20;100.00
74075;BME280;62428;51.412;5.432;2023-10-13T09:06:00;100429.19;;;18.22;100.00
74075;BME280;62428;51.412;5.432;2023-10-13T09:08:31;100422.16;;;18.21;100.00
74075;BME280;62428;51.412;5.432;2023-10-13T09:11:15;100429.53;;;18.20;100.00
74075;BME280;62428;51.412;5.432;2023-10-13T09:13:45;100419.88;;;18.23;100.00
74075;BME280;62428;51.412;5.432;2023-10-13T09:16:12;100426.16;;;18.27;100.00
74075;BME280;62428;51.412;5.432;2023-10-13T09:19:04;100426.16;;;18.27;100.00
74075;BME280;62428;51.412;5.432;2023-10-13T09:21:37;100419.59;;;18.28;100.00
74075;BME280;62428;51.412;5.432;2023-10-13T09:24:03;100425.81;;;18.29;100.00
74075;BME280;62428;51.412;5.432;2023-10-13T09:26:48;100428.19;;;18.30;100.00
74075;BME280;62428;51.412;5.432;2023-10-13T09:29:18;100423.19;;;18.32;100.00
74075;BME280;62428;51.412;5.432;2023-10-13T09:31:46;100431.00;;;18.34;100.00
74075;BME280;62428;51.412;5.432;2023-10-13T09:34:19;100431.78;;;18.34;100.00
74075;BME280;62428;51.412;5.432;2023-10-13T09:36:46;100422.91;;;18.37;100.00
74075;BME280;62428;51.412;5.432;2023-10-13T09:39:13;100422.28;;;18.44;100.00
74075;BME280;62428;51.412;5.432;2023-10-13T09:41:54;100414.28;;;18.51;100.00
74075;BME280;62428;51.412;5.432;2023-10-13T09:44:21;100415.75;;;18.64;100.00
74075;BME280;62428;51.412;5.432;2023-10-13T09:46:46;100413.25;;;18.75;100.00
74075;BME280;62428;51.412;5.432;2023-10-13T09:49:22;100409.53;;;18.83;100.00
74075;BME280;62428;51.412;5.432;2023-10-13T09:52:11;100401.44;;;18.87;100.00
74075;BME280;62428;51.412;5.432;2023-10-13T09:54:53;100393.34;;;18.91;100.00
74075;BME280;62428;51.412;5.432;2023-10-13T09:57:29;100411.28;;;18.92;100.00
74075;BME280;62428;51.412;5.432;2023-10-13T10:00:20;100405.13;;;18.95;100.00
74075;BME280;62428;51.412;5.432;2023-10-13T10:03:06;100400.88;;;18.97;100.00
74075;BME280;62428;51.412;5.432;2023-10-13T10:05:58;100392.00;;;19.00;100.00
74075;BME280;62428;51.412;5.432;2023-10-13T10:08:41;100388.63;;;19.07;100.00
74075;BME280;62428;51.412;5.432;2023-10-13T10:17:08;100367.78;;;19.15;100.00
74075;BME280;62428;51.412;5.432;2023-10-13T10:19:52;100376.72;;;19.15;100.00
74075;BME280;62428;51.412;5.432;2023-10-13T10:22:30;100387.63;;;19.15;100.00
74075;BME280;62428;51.412;5.432;2023-10-13T10:25:00;100367.84;;;19.18;100.00
74075;BME280;62428;51.412;5.432;2023-10-13T10:27:31;100369.88;;;19.25;100.00
74075;BME280;62428;51.412;5.432;2023-10-13T10:29:57;100369.97;;;19.29;100.00
74075;BME280;62428;51.412;5.432;2023-10-13T10:32:36;100365.34;;;19.33;100.00
74075;BME280;62428;51.412;5.432;2023-10-13T10:35:04;100376.31;;;19.36;100.00
74075;BME280;62428;51.412;5.432;2023-10-13T10:37:36;100345.63;;;19.39;100.00
74075;BME280;62428;51.412;5.432;2023-10-13T10:40:07;100364.75;;;19.43;100.00
74075;BME280;62428;51.412;5.432;2023-10-13T10:42:33;100351.16;;;19.43;100.00
74075;BME280;62428;51.412;5.432;2023-10-13T10:44:59;100348.06;;;19.45;100.00
74075;BME280;62428;51.412;5.432;2023-10-13T10:47:31;100354.28;;;19.45;100.00
74075;BME280;62428;51.412;5.432;2023-10-13T10:50:00;100344.97;;;19.46;100.00
74075;BME280;62428;51.412;5.432;2023-10-13T10:52:33;100342.31;;;19.50;100.00
74075;BME280;62428;51.412;5.432;2023-10-13T10:55:03;100337.28;;;19.52;100.00
74075;BME280;62428;51.412;5.432;2023-10-13T10:57:33;100335.03;;;19.57;100.00
74075;BME280;62428;51.412;5.432;2023-10-13T11:00:05;100343.34;;;19.65;100.00
74075;BME280;62428;51.412;5.432;2023-10-13T11:02:39;100344.59;;;19.71;100.00
74075;BME280;62428;51.412;5.432;2023-10-13T11:05:06;100356.00;;;19.76;100.00
74075;BME280;62428;51.412;5.432;2023-10-13T11:07:32;100355.25;;;19.80;100.00
74075;BME280;62428;51.412;5.432;2023-10-13T11:10:10;100349.44;;;19.81;100.00
74075;BME280;62428;51.412;5.432;2023-10-13T11:12:58;100339.69;;;19.80;100.00
74075;BME280;62428;51.412;5.432;2023-10-13T11:15:47;100342.88;;;19.86;100.00
74075;BME280;62428;51.412;5.432;2023-10-13T11:18:12;100340.69;;;19.95;100.00
74075;BME280;62428;51.412;5.432;2023-10-13T11:20:46;100325.59;;;20.01;100.00
74075;BME280;62428;51.412;5.432;2023-10-13T11:23:15;100331.16;;;20.08;100.00
74075;BME280;62428;51.412;5.432;2023-10-13T11:25:41;100327.72;;;20.15;100.00
74075;BME280;62428;51.412;5.432;2023-10-13T11:28:14;100335.59;;;20.20;100.00
74075;BME280;62428;51.412;5.432;2023-10-13T11:30:46;100315.34;;;20.21;100.00
74075;BME280;62428;51.412;5.432;2023-10-13T11:33:16;100297.91;;;20.29;100.00
74075;BME280;62428;51.412;5.432;2023-10-13T11:35:57;100302.38;;;20.41;100.00
74075;BME280;62428;51.412;5.432;2023-10-13T11:38:31;100311.41;;;20.49;100.00
74075;BME280;62428;51.412;5.432;2023-10-13T11:41:05;100287.69;;;20.53;100.00
74075;BME280;62428;51.412;5.432;2023-10-13T11:43:34;100291.22;;;20.53;100.00
74075;BME280;62428;51.412;5.432;2023-10-13T11:46:22;100272.53;;;20.55;100.00
74075;BME280;62428;51.412;5.432;2023-10-13T11:49:00;100267.47;;;20.58;98.33
74075;BME280;62428;51.412;5.432;2023-10-13T11:51:30;100277.66;;;20.61;98.48
74075;BME280;62428;51.412;5.432;2023-10-13T11:53:57;100279.56;;;20.60;100.00
74075;BME280;62428;51.412;5.432;2023-10-13T11:56:24;100267.09;;;20.59;98.92
74075;BME280;62428;51.412;5.432;2023-10-13T11:58:50;100276.13;;;20.63;94.60
74075;BME280;62428;51.412;5.432;2023-10-13T12:01:16;100278.56;;;20.72;97.62
74075;BME280;62428;51.412;5.432;2023-10-13T12:03:48;100272.38;;;20.79;98.15
74075;BME280;62428;51.412;5.432;2023-10-13T12:06:33;100257.25;;;20.85;96.06
74075;BME280;62428;51.412;5.432;2023-10-13T12:09:06;100270.22;;;20.95;94.51
74075;BME280;62428;51.412;5.432;2023-10-13T12:11:41;100264.06;;;21.05;93.39
74075;BME280;62428;51.412;5.432;2023-10-13T12:14:12;100273.50;;;21.15;94.43
74075;BME280;62428;51.412;5.432;2023-10-13T12:16:54;100256.88;;;21.31;93.67
74075;BME280;62428;51.412;5.432;2023-10-13T12:19:22;100239.09;;;21.52;93.04
74075;BME280;62428;51.412;5.432;2023-10-13T12:21:54;100243.50;;;21.71;90.33
74075;BME280;62428;51.412;5.432;2023-10-13T12:24:21;100238.47;;;21.80;91.15
74075;BME280;62428;51.412;5.432;2023-10-13T12:27:05;100242.78;;;21.84;90.27
74075;BME280;62428;51.412;5.432;2023-10-13T12:29:52;100243.56;;;21.81;91.63
74075;BME280;62428;51.412;5.432;2023-10-13T12:32:18;100244.72;;;21.77;89.40
74075;BME280;62428;51.412;5.432;2023-10-13T12:34:56;100240.81;;;21.78;89.09
74075;BME280;62428;51.412;5.432;2023-10-13T12:37:27;100234.16;;;21.79;88.12
74075;BME280;62428;51.412;5.432;2023-10-13T12:40:18;100238.47;;;21.76;89.41
74075;BME280;62428;51.412;5.432;2023-10-13T12:43:03;100226.72;;;21.72;88.16
74075;BME280;62428;51.412;5.432;2023-10-13T12:45:49;100229.03;;;21.66;89.11
74075;BME280;62428;51.412;5.432;2023-10-13T12:48:36;100228.22;;;21.62;86.50
74075;BME280;62428;51.412;5.432;2023-10-13T12:51:20;100230.94;;;21.59;87.47
74075;BME280;62428;51.412;5.432;2023-10-13T12:54:00;100223.47;;;21.56;87.14
74075;BME280;62428;51.412;5.432;2023-10-13T12:56:48;100223.50;;;21.52;86.23
74075;BME280;62428;51.412;5.432;2023-10-13T12:59:13;100230.09;;;21.51;84.95
74075;BME280;62428;51.412;5.432;2023-10-13T13:01:39;100229.34;;;21.50;84.92
74075;BME280;62428;51.412;5.432;2023-10-13T13:04:10;100237.13;;;21.48;85.92
74075;BME280;62428;51.412;5.432;2023-10-13T13:06:49;100229.34;;;21.50;84.71
74075;BME280;62428;51.412;5.432;2023-10-13T13:09:15;100234.00;;;21.50;86.17
74075;BME280;62428;51.412;5.432;2023-10-13T13:11:40;100226.97;;;21.49;83.37
74075;BME280;62428;51.412;5.432;2023-10-13T13:14:06;100236.72;;;21.50;82.71
74075;BME280;62428;51.412;5.432;2023-10-13T13:16:36;100229.75;;;21.56;82.54
74075;BME280;62428;51.412;5.432;2023-10-13T13:19:04;100227.03;;;21.60;82.63
74075;BME280;62428;51.412;5.432;2023-10-13T13:21:36;100229.41;;;21.61;82.60
74075;BME280;62428;51.412;5.432;2023-10-13T13:24:01;100232.91;;;21.62;82.02
74075;BME280;62428;51.412;5.432;2023-10-13T13:26:29;100225.88;;;21.64;82.42
74075;BME280;62428;51.412;5.432;2023-10-13T13:28:56;100237.66;;;21.68;81.02